createdAt,value
2022-12-06T00:01:32.201Z,344.83
2022-12-06T00:04:02.873Z,383.48
2022-12-06T00:06:32.881Z,356.58
2022-12-06T00:09:02.032Z,360.27
2022-12-06T00:11:32.196Z,362.92
2022-12-06T00:14:03.465Z,368.13
2022-12-06T00:16:32.415Z,381.90
2022-12-06T00:19:01.333Z,339.33
2022-12-06T00:21:31.343Z,371.98
2022-12-06T00:24:01.975Z,335.67
2022-12-06T00:26:30.817Z,335.77
2022-12-06T00:29:02.221Z,358.00
2022-12-06T00:31:32.007Z,329.50
2022-12-06T00:34:00.399Z,334.65
2022-12-06T00:36:30.585Z,336.63
2022-12-06T00:39:01.504Z,359.90
2022-12-06T00:41:30.061Z,364.70
2022-12-06T00:43:58.600Z,375.90
2022-12-06T00:46:30.466Z,356.42
2022-12-06T00:49:00.249Z,383.60
2022-12-06T00:51:30.410Z,365.25
2022-12-06T00:53:59.081Z,382.10
2022-12-06T00:56:28.076Z,353.35
2022-12-06T00:58:56.828Z,347.08
2022-12-06T01:01:28.960Z,322.42
2022-12-06T01:03:58.789Z,352.60
2022-12-06T01:06:29.811Z,347.92
2022-12-06T01:08:59.193Z,372.85
2022-12-06T01:11:28.565Z,328.10
2022-12-06T01:13:57.417Z,296.88
2022-12-06T01:16:29.853Z,299.67
2022-12-06T01:18:59.555Z,300.75
2022-12-06T01:21:29.008Z,277.10
2022-12-06T01:23:57.514Z,325.23
2022-12-06T01:26:28.179Z,268.75
2022-12-06T01:28:56.926Z,313.70
2022-12-06T01:31:25.485Z,316.80
2022-12-06T01:33:55.447Z,305.05
2022-12-06T01:36:26.361Z,287.20
2022-12-06T01:38:56.088Z,300.88
2022-12-06T01:41:26.143Z,256.88
2022-12-06T01:43:55.144Z,286.02
2022-12-06T01:46:35.265Z,297.38
2022-12-06T01:49:15.655Z,308.10
2022-12-06T01:51:47.138Z,309.13
2022-12-06T01:54:17.750Z,290.35
2022-12-06T01:56:46.312Z,292.92
2022-12-06T01:59:14.952Z,282.17
2022-12-06T02:01:43.782Z,244.80
2022-12-06T02:04:13.878Z,221.60
2022-12-06T02:06:43.147Z,265.02
2022-12-06T02:09:12.501Z,246.68
2022-12-06T02:11:43.673Z,224.52
2022-12-06T02:14:14.619Z,293.33
2022-12-06T02:17:07.997Z,310.77
2022-12-06T02:19:56.280Z,224.40
2022-12-06T02:22:31.492Z,273.05
2022-12-06T02:25:12.076Z,277.50
2022-12-06T02:28:05.819Z,206.55
2022-12-06T02:30:44.008Z,219.25
2022-12-06T02:33:17.307Z,281.95
2022-12-06T02:35:50.731Z,324.77
2022-12-06T02:38:23.611Z,297.73
2022-12-06T02:40:56.640Z,283.30
2022-12-06T02:43:28.631Z,235.98
2022-12-06T02:46:01.541Z,298.02
2022-12-06T02:48:30.062Z,269.73
2022-12-06T02:51:01.345Z,268.63
2022-12-06T02:53:31.671Z,268.95
2022-12-06T02:56:00.835Z,293.80
2022-12-06T02:58:29.281Z,253.32
2022-12-06T03:01:00.058Z,224.00
2022-12-06T03:03:51.802Z,321.52
2022-12-06T03:06:51.143Z,275.95
2022-12-06T03:09:27.257Z,254.45
2022-12-06T03:12:01.723Z,305.27
2022-12-06T03:14:34.875Z,305.17
2022-12-06T03:17:11.163Z,194.07
2022-12-06T03:19:41.010Z,207.35
2022-12-06T03:22:13.046Z,284.55
2022-12-06T03:24:42.684Z,299.02
2022-12-06T03:27:14.144Z,298.55
2022-12-06T03:29:44.980Z,274.73
2022-12-06T03:32:16.598Z,253.50
2022-12-06T03:34:47.341Z,299.92
2022-12-06T03:37:19.288Z,207.88
2022-12-06T03:39:51.088Z,297.92
2022-12-06T03:42:20.442Z,261.60
2022-12-06T03:44:49.111Z,299.02
2022-12-06T03:47:22.577Z,195.15
2022-12-06T03:49:53.307Z,303.20
2022-12-06T03:52:23.546Z,281.40
2022-12-06T03:54:51.878Z,238.48
2022-12-06T03:57:20.297Z,290.42
2022-12-06T03:59:48.662Z,197.07
2022-12-06T04:02:18.570Z,243.38
2022-12-06T04:04:47.096Z,218.10
2022-12-06T04:07:15.660Z,291.55
2022-12-06T04:10:03.010Z,253.27
2022-12-06T04:12:50.131Z,312.85
2022-12-06T04:15:19.224Z,311.90
2022-12-06T04:18:06.437Z,348.15
2022-12-06T04:20:49.307Z,320.88
2022-12-06T04:23:18.986Z,266.45
2022-12-06T04:25:47.329Z,206.75
2022-12-06T04:28:33.385Z,221.38
2022-12-06T04:31:22.315Z,333.05
2022-12-06T04:34:10.215Z,303.00
2022-12-06T04:36:56.029Z,310.10
2022-12-06T04:39:24.564Z,348.15
2022-12-06T04:42:10.562Z,280.55
2022-12-06T04:44:38.967Z,231.25
2022-12-06T04:47:07.753Z,256.83
2022-12-06T04:49:38.709Z,228.50
2022-12-06T04:52:07.768Z,327.65
2022-12-06T04:54:36.603Z,284.17
2022-12-06T04:57:11.338Z,159.20
2022-12-06T04:59:40.755Z,227.75
2022-12-06T05:02:11.392Z,268.65
2022-12-06T05:04:41.294Z,298.42
2022-12-06T05:07:09.952Z,251.70
2022-12-06T05:09:38.542Z,169.43
2022-12-06T05:12:07.403Z,265.05
2022-12-06T05:14:35.995Z,208.32
2022-12-06T05:17:04.369Z,219.65
2022-12-06T05:19:32.721Z,260.25
2022-12-06T05:22:02.527Z,304.33
2022-12-06T05:24:30.887Z,261.52
2022-12-06T05:26:59.319Z,262.90
2022-12-06T05:29:28.063Z,202.27
2022-12-06T05:31:56.611Z,262.75
2022-12-06T05:34:25.827Z,195.52
2022-12-06T05:36:54.585Z,287.83
2022-12-06T05:39:24.581Z,232.27
2022-12-06T05:41:53.821Z,211.95
2022-12-06T05:44:22.596Z,306.52
2022-12-06T05:46:51.080Z,155.27
2022-12-06T05:49:20.188Z,259.02
2022-12-06T05:51:48.781Z,173.30
2022-12-06T05:54:17.515Z,192.43
2022-12-06T05:56:47.405Z,298.85
2022-12-06T05:59:15.880Z,282.50
2022-12-06T06:01:44.406Z,356.48
2022-12-06T06:04:12.905Z,290.95
2022-12-06T06:06:41.454Z,199.02
2022-12-06T06:09:25.394Z,220.52
2022-12-06T06:11:55.219Z,160.88
2022-12-06T06:14:24.333Z,158.98
2022-12-06T06:16:53.088Z,224.45
2022-12-06T06:19:23.851Z,205.20
2022-12-06T06:21:52.475Z,244.68
2022-12-06T06:24:21.252Z,235.13
2022-12-06T06:26:49.723Z,163.25
2022-12-06T06:29:19.522Z,305.00
2022-12-06T06:31:47.988Z,185.50
2022-12-06T06:34:16.535Z,396.88
2022-12-06T06:36:46.055Z,342.77
2022-12-06T06:39:14.757Z,199.35
2022-12-06T06:41:43.368Z,388.90
2022-12-06T06:44:11.851Z,304.20
2022-12-06T06:46:41.707Z,354.85
2022-12-06T06:49:11.989Z,257.70
2022-12-06T06:51:40.741Z,220.10
2022-12-06T06:54:09.585Z,300.75
2022-12-06T06:56:38.042Z,233.65
2022-12-06T06:59:06.880Z,427.52
2022-12-06T07:01:35.782Z,206.68
2022-12-06T07:04:06.188Z,200.40
2022-12-06T07:06:34.708Z,258.48
2022-12-06T07:09:03.406Z,289.73
2022-12-06T07:11:32.203Z,244.25
2022-12-06T07:14:01.028Z,165.52
2022-12-06T07:16:29.724Z,303.83
2022-12-06T07:18:58.346Z,278.23
2022-12-06T07:21:28.655Z,275.63
2022-12-06T07:23:57.277Z,219.88
2022-12-06T07:26:26.197Z,232.68
2022-12-06T07:28:56.664Z,179.65
2022-12-06T07:31:27.344Z,256.13
2022-12-06T07:33:57.370Z,221.13
2022-12-06T07:36:27.983Z,156.57
2022-12-06T07:38:57.954Z,366.98
2022-12-06T07:41:45.117Z,167.38
2022-12-06T07:44:33.154Z,218.93
2022-12-06T07:47:01.783Z,294.77
2022-12-06T07:49:30.680Z,203.32
2022-12-06T07:52:00.798Z,268.90
2022-12-06T07:54:29.343Z,326.90
2022-12-06T07:56:57.797Z,227.77
2022-12-06T07:59:26.899Z,189.13
2022-12-06T08:01:55.893Z,266.92
2022-12-06T08:04:24.529Z,196.48
2022-12-06T08:06:53.122Z,189.70
2022-12-06T08:09:23.228Z,232.70
2022-12-06T08:11:51.878Z,261.73
2022-12-06T08:14:20.276Z,191.20
2022-12-06T08:16:48.730Z,204.45
2022-12-06T08:19:17.126Z,283.45
2022-12-06T08:21:45.682Z,157.45
2022-12-06T08:24:14.550Z,222.02
2022-12-06T08:26:44.592Z,241.98
2022-12-06T08:29:13.304Z,201.18
2022-12-06T08:31:42.434Z,252.73
2022-12-06T08:34:11.037Z,507.70
2022-12-06T08:36:40.074Z,577.17
2022-12-06T08:39:09.462Z,525.85
2022-12-06T08:41:55.440Z,432.13
2022-12-06T08:44:25.576Z,432.13
2022-12-06T08:46:55.177Z,508.20
2022-12-06T08:49:24.235Z,439.45
2022-12-06T08:51:53.287Z,427.33
2022-12-06T08:54:23.340Z,335.45
2022-12-06T08:56:52.541Z,311.00
2022-12-06T08:59:21.458Z,250.27
2022-12-06T09:01:51.582Z,320.98
2022-12-06T09:04:20.286Z,196.27
2022-12-06T09:06:49.077Z,306.35
2022-12-06T09:09:19.145Z,244.90
2022-12-06T09:11:50.276Z,204.95
2022-12-06T09:14:22.265Z,210.55
2022-12-06T09:16:52.982Z,193.48
2022-12-06T09:19:22.436Z,234.60
2022-12-06T09:21:50.924Z,235.00
2022-12-06T09:24:20.309Z,229.13
2022-12-06T09:26:49.134Z,198.60
2022-12-06T09:29:18.155Z,248.57
2022-12-06T09:31:47.059Z,368.30
2022-12-06T09:34:17.568Z,188.57
2022-12-06T09:36:49.775Z,234.55
2022-12-06T09:39:22.096Z,346.17
2022-12-06T09:42:19.378Z,217.50
2022-12-06T09:45:12.744Z,228.30
2022-12-06T09:47:52.647Z,202.82
2022-12-06T09:50:27.406Z,310.58
2022-12-06T09:53:08.462Z,227.98
2022-12-06T09:55:47.390Z,208.57
2022-12-06T09:58:24.519Z,239.13
2022-12-06T10:00:59.663Z,205.90
2022-12-06T10:03:38.445Z,170.93
2022-12-06T10:06:12.548Z,187.10
2022-12-06T10:08:52.610Z,166.00
2022-12-06T10:11:32.343Z,166.88
2022-12-06T10:14:10.149Z,307.13
2022-12-06T10:16:48.224Z,282.15
2022-12-06T10:19:26.654Z,252.95
2022-12-06T10:22:04.654Z,317.15
2022-12-06T10:24:42.670Z,226.20
2022-12-06T10:27:13.547Z,276.98
2022-12-06T10:29:51.086Z,296.35
2022-12-06T10:32:23.648Z,328.20
2022-12-06T10:34:56.710Z,280.80
2022-12-06T10:37:35.712Z,289.55
2022-12-06T10:40:09.556Z,261.48
2022-12-06T10:42:42.071Z,424.80
2022-12-06T10:45:38.026Z,296.15
2022-12-06T10:48:16.306Z,326.27
2022-12-06T10:50:46.119Z,296.88
2022-12-06T10:53:18.124Z,308.52
2022-12-06T10:55:49.701Z,244.98
2022-12-06T10:58:22.112Z,256.98
2022-12-06T11:00:55.876Z,268.88
2022-12-06T11:03:28.517Z,243.15
2022-12-06T11:05:58.941Z,312.88
2022-12-06T11:08:32.502Z,207.13
2022-12-06T11:11:01.630Z,260.52
2022-12-06T11:13:36.862Z,341.73
2022-12-06T11:16:08.268Z,288.50
2022-12-06T11:18:36.911Z,220.75
2022-12-06T11:21:13.489Z,247.13
2022-12-06T11:23:49.531Z,345.33
2022-12-06T11:26:25.086Z,291.88
2022-12-06T11:29:04.119Z,238.60
2022-12-06T11:31:35.171Z,242.55
2022-12-06T11:34:04.873Z,261.50
2022-12-06T11:36:33.921Z,169.57
2022-12-06T11:39:05.008Z,234.73
2022-12-06T11:41:36.384Z,270.42
2022-12-06T11:44:05.123Z,422.80
2022-12-06T11:46:33.737Z,265.08
2022-12-06T11:49:14.742Z,185.15
2022-12-06T11:51:43.484Z,182.05
2022-12-06T11:54:22.454Z,239.93
2022-12-06T11:56:51.763Z,220.98
2022-12-06T11:59:25.947Z,289.02
2022-12-06T12:01:56.453Z,257.80
2022-12-06T12:04:37.168Z,278.73
2022-12-06T12:07:12.327Z,275.42
2022-12-06T12:09:50.946Z,195.63
2022-12-06T12:12:21.992Z,262.23
2022-12-06T12:14:56.539Z,327.77
2022-12-06T12:17:30.366Z,288.80
2022-12-06T12:20:01.085Z,453.00
2022-12-06T12:22:32.969Z,343.42
2022-12-06T12:25:21.089Z,338.38
2022-12-06T12:27:51.019Z,224.98
2022-12-06T12:30:29.168Z,295.63
2022-12-06T12:33:18.639Z,234.93
2022-12-06T12:35:49.391Z,295.83
2022-12-06T12:38:27.844Z,195.20
2022-12-06T12:40:59.666Z,233.57
2022-12-06T12:43:31.186Z,250.82
2022-12-06T12:46:21.872Z,348.77
2022-12-06T12:48:51.745Z,366.15
2022-12-06T12:51:34.002Z,268.33
2022-12-06T12:54:05.650Z,361.70
2022-12-06T12:56:38.162Z,399.83
2022-12-06T12:59:15.312Z,528.03
2022-12-06T13:01:46.964Z,525.13
2022-12-06T13:04:21.624Z,446.58
2022-12-06T13:06:52.732Z,469.48
2022-12-06T13:09:27.586Z,379.67
2022-12-06T13:12:01.573Z,399.40
2022-12-06T13:14:30.531Z,468.88
2022-12-06T13:17:01.870Z,449.88
2022-12-06T13:19:35.091Z,407.60
2022-12-06T13:22:05.252Z,415.45
2022-12-06T13:24:34.787Z,429.33
2022-12-06T13:27:07.989Z,386.25
2022-12-06T13:29:39.923Z,379.00
2022-12-06T13:32:13.077Z,422.73
2022-12-06T13:34:45.129Z,453.15
2022-12-06T13:37:36.576Z,399.63
2022-12-06T13:40:08.192Z,406.88
2022-12-06T13:42:46.585Z,410.15
2022-12-06T13:45:40.999Z,431.85
2022-12-06T13:48:40.069Z,431.83
2022-12-06T13:51:13.975Z,441.25
2022-12-06T13:54:18.932Z,448.92
2022-12-06T13:56:47.695Z,420.13
2022-12-06T14:12:37.072Z,266.70
2022-12-06T14:15:07.486Z,429.85
2022-12-06T14:20:31.887Z,408.08
2022-12-06T14:23:01.082Z,414.98
2022-12-06T14:25:31.570Z,414.15
2022-12-06T14:28:07.706Z,482.52
2022-12-06T14:30:36.951Z,529.88
2022-12-06T14:33:19.789Z,565.30
2022-12-06T14:35:51.979Z,448.63
2022-12-06T14:38:24.563Z,504.90
2022-12-06T14:41:11.018Z,437.48
2022-12-06T14:43:45.135Z,471.58
2022-12-06T14:46:16.001Z,431.67
2022-12-06T14:49:02.466Z,423.52
2022-12-06T14:51:38.034Z,458.45
2022-12-06T14:54:18.818Z,426.73
2022-12-06T14:56:47.236Z,434.70
2022-12-06T14:59:47.376Z,418.92
2022-12-06T15:02:23.871Z,543.72
2022-12-06T15:04:52.912Z,465.23
2022-12-06T15:07:39.936Z,369.65
2022-12-06T15:10:22.798Z,427.67
2022-12-06T15:12:57.121Z,394.58
2022-12-06T15:15:38.800Z,320.02
2022-12-06T15:18:25.507Z,461.58
2022-12-06T15:23:38.157Z,482.58
2022-12-06T15:26:07.823Z,301.92
2022-12-06T15:28:49.592Z,334.35
2022-12-06T15:31:22.342Z,409.48
2022-12-06T15:33:50.997Z,394.08
2022-12-06T15:36:21.113Z,450.58
2022-12-06T15:38:49.814Z,510.38
2022-12-06T15:41:19.920Z,289.90
2022-12-06T15:43:48.608Z,409.83
2022-12-06T15:46:23.930Z,389.95
2022-12-06T15:48:53.815Z,263.60
2022-12-06T15:51:24.982Z,534.88
2022-12-06T15:53:54.028Z,340.92
2022-12-06T15:56:23.921Z,368.35
2022-12-06T15:58:52.761Z,345.58
2022-12-06T16:01:24.961Z,280.20
2022-12-06T16:03:55.064Z,312.45
2022-12-06T16:06:25.671Z,315.55
2022-12-06T16:08:54.361Z,360.17
2022-12-06T16:11:24.327Z,262.73
2022-12-06T16:13:53.110Z,289.10
2022-12-06T16:16:23.234Z,302.13
2022-12-06T16:18:52.327Z,165.98
2022-12-06T16:21:23.181Z,375.60
2022-12-06T16:24:13.206Z,265.75
2022-12-06T16:26:45.538Z,293.17
2022-12-06T16:29:17.066Z,293.40
2022-12-06T16:31:47.871Z,305.02
2022-12-06T16:34:16.666Z,368.55
2022-12-06T16:36:59.954Z,190.20
2022-12-06T16:39:28.935Z,242.70
2022-12-06T16:41:57.874Z,320.92
2022-12-06T16:44:27.478Z,184.43
2022-12-06T16:47:00.362Z,177.98
2022-12-06T16:49:49.584Z,272.15
2022-12-06T16:52:19.086Z,335.95
2022-12-06T16:54:48.336Z,209.70
2022-12-06T16:57:19.745Z,230.63
2022-12-06T16:59:48.915Z,230.02
2022-12-06T17:02:27.326Z,191.35
2022-12-06T17:04:56.909Z,235.23
2022-12-06T17:07:26.514Z,255.25
2022-12-06T17:09:55.877Z,364.70
2022-12-06T17:12:25.308Z,234.45
2022-12-06T17:14:55.470Z,302.05
2022-12-06T17:17:32.410Z,393.75
2022-12-06T17:20:05.154Z,310.38
2022-12-06T17:22:36.737Z,375.73
2022-12-06T17:25:06.655Z,197.95
2022-12-06T17:27:35.724Z,179.70
2022-12-06T17:30:05.987Z,225.10
2022-12-06T17:32:37.154Z,347.30
2022-12-06T17:35:06.314Z,339.08
2022-12-06T17:37:35.204Z,374.88
2022-12-06T17:40:07.625Z,291.98
2022-12-06T17:42:53.876Z,241.80
2022-12-06T17:45:24.845Z,319.50
2022-12-06T17:47:58.079Z,353.15
2022-12-06T17:50:27.453Z,282.48
2022-12-06T17:52:56.087Z,251.60
2022-12-06T17:55:24.925Z,284.75
2022-12-06T17:57:53.716Z,407.38
2022-12-06T18:00:23.642Z,243.88
2022-12-06T18:02:55.894Z,329.63
2022-12-06T18:05:29.673Z,319.95
2022-12-06T18:08:01.524Z,297.77
2022-12-06T18:10:30.085Z,205.57
2022-12-06T18:13:01.439Z,270.40
2022-12-06T18:15:44.428Z,369.40
2022-12-06T18:18:14.971Z,168.73
2022-12-06T18:20:47.312Z,234.55
2022-12-06T18:23:19.614Z,243.50
2022-12-06T18:25:49.132Z,443.48
2022-12-06T18:28:17.826Z,353.42
2022-12-06T18:30:46.714Z,306.98
2022-12-06T18:33:19.315Z,350.95
2022-12-06T18:38:22.609Z,292.77
2022-12-06T18:40:51.779Z,264.90
2022-12-06T18:43:21.431Z,282.95
2022-12-06T18:45:50.926Z,302.45
2022-12-06T18:48:21.183Z,207.00
2022-12-06T18:50:50.549Z,260.85
2022-12-06T18:53:24.300Z,324.73
2022-12-06T18:55:55.717Z,326.37
2022-12-06T18:58:24.587Z,350.98
2022-12-06T19:00:54.019Z,236.68
2022-12-06T19:03:22.956Z,348.20
2022-12-06T19:06:02.896Z,356.15
2022-12-06T19:08:34.178Z,357.15
2022-12-06T19:11:04.504Z,391.30
2022-12-06T19:13:34.078Z,380.25
2022-12-06T19:16:04.410Z,375.52
2022-12-06T19:18:33.627Z,299.60
2022-12-06T19:21:03.128Z,378.52
2022-12-06T19:23:34.114Z,385.15
2022-12-06T19:26:04.062Z,458.05
2022-12-06T19:28:34.109Z,378.73
2022-12-06T19:31:04.000Z,423.55
2022-12-06T19:33:37.146Z,332.98
2022-12-06T19:36:08.825Z,400.88
2022-12-06T19:38:38.759Z,386.63
2022-12-06T19:41:09.327Z,377.85
2022-12-06T19:43:55.711Z,398.83
2022-12-06T19:46:26.325Z,385.38
2022-12-06T19:48:56.575Z,408.05
2022-12-06T19:51:26.789Z,325.20
2022-12-06T19:53:58.020Z,462.23
2022-12-06T19:56:27.609Z,360.52
2022-12-06T19:58:58.268Z,395.73
2022-12-06T20:01:30.159Z,340.30
2022-12-06T20:03:59.088Z,391.00
2022-12-06T20:06:28.922Z,393.52
2022-12-06T20:09:02.335Z,411.00
2022-12-06T20:11:48.384Z,430.95
2022-12-06T20:14:18.977Z,386.50
2022-12-06T20:16:47.965Z,395.65
2022-12-06T20:19:16.930Z,393.15
2022-12-06T20:21:46.028Z,346.55
2022-12-06T20:24:18.883Z,347.00
2022-12-06T20:26:49.264Z,403.55
2022-12-06T20:29:19.031Z,414.80
2022-12-06T20:31:48.545Z,320.63
2022-12-06T20:34:17.116Z,399.20
2022-12-06T20:36:45.766Z,398.40
2022-12-06T20:39:21.928Z,414.05
2022-12-06T20:41:51.182Z,401.58
2022-12-06T20:44:20.848Z,367.08
2022-12-06T20:46:50.841Z,434.85
2022-12-06T20:49:19.634Z,377.70
2022-12-06T20:51:52.581Z,597.63
2022-12-06T20:54:41.266Z,395.10
2022-12-06T20:57:10.778Z,423.45
2022-12-06T20:59:42.297Z,467.98
2022-12-06T21:02:16.601Z,402.02
2022-12-06T21:04:46.131Z,389.80
2022-12-06T21:07:14.630Z,412.05
2022-12-06T21:09:44.908Z,405.15
2022-12-06T21:12:13.593Z,301.95
2022-12-06T21:14:42.140Z,331.15
2022-12-06T21:17:10.796Z,402.65
2022-12-06T21:19:39.570Z,397.00
2022-12-06T21:22:08.468Z,401.92
2022-12-06T21:24:38.111Z,376.85
2022-12-06T21:27:15.805Z,420.67
2022-12-06T21:30:29.431Z,399.88
2022-12-06T21:32:59.957Z,370.05
2022-12-06T21:35:35.624Z,383.55
2022-12-06T21:38:10.910Z,397.88
2022-12-06T21:45:41.674Z,397.10
2022-12-06T21:54:47.847Z,483.35
2022-12-06T21:57:16.937Z,411.42
2022-12-06T21:59:45.759Z,394.38
2022-12-06T22:02:14.551Z,410.83
2022-12-06T22:04:43.451Z,413.55
2022-12-06T22:07:13.920Z,411.95
2022-12-06T22:09:42.469Z,360.10
2022-12-06T22:12:11.235Z,404.88
2022-12-06T22:14:39.775Z,321.42
2022-12-06T22:17:08.564Z,415.45
2022-12-06T22:19:37.352Z,407.40
2022-12-06T22:22:06.010Z,428.60
2022-12-06T22:24:37.074Z,429.27
2022-12-06T22:27:06.378Z,418.17
2022-12-06T22:29:34.932Z,406.30
2022-12-06T22:32:04.020Z,406.65
2022-12-06T22:34:33.295Z,399.58
2022-12-06T22:37:02.123Z,415.95
2022-12-06T22:39:30.708Z,400.02
2022-12-06T22:42:00.798Z,400.27
2022-12-06T22:44:29.576Z,406.55
2022-12-06T22:46:58.250Z,384.38
2022-12-06T22:49:27.480Z,420.02
2022-12-06T22:51:56.619Z,406.00
2022-12-06T22:54:25.974Z,396.70
2022-12-06T22:56:54.967Z,359.90
2022-12-06T22:59:25.123Z,419.70
2022-12-06T23:01:53.961Z,429.75
2022-12-06T23:04:23.114Z,434.15
2022-12-06T23:06:51.721Z,425.67
2022-12-06T23:09:20.813Z,440.50
2022-12-06T23:11:50.549Z,429.42
2022-12-06T23:14:22.171Z,430.05
2022-12-06T23:16:52.591Z,441.02
2022-12-06T23:19:22.573Z,463.40
2022-12-06T23:21:52.050Z,450.63
2022-12-06T23:24:21.452Z,407.00
2022-12-06T23:26:57.502Z,376.95
2022-12-06T23:29:27.056Z,469.20
2022-12-06T23:31:57.389Z,455.17
2022-12-06T23:34:27.403Z,392.50
2022-12-06T23:36:57.427Z,385.35
2022-12-06T23:39:26.154Z,388.30
2022-12-06T23:41:55.041Z,455.35
2022-12-06T23:44:25.221Z,399.42
2022-12-06T23:46:53.933Z,392.25
2022-12-06T23:49:24.209Z,355.55
2022-12-06T23:51:52.972Z,363.63
2022-12-06T23:54:21.543Z,475.20
2022-12-06T23:56:50.165Z,406.33
2022-12-06T23:59:19.432Z,396.70
